createdAt,value
2024-02-22T00:00:12.918Z,1.17
2024-02-22T00:05:16.771Z,1.70
2024-02-22T00:10:20.412Z,1.53
2024-02-22T00:15:25.844Z,1.40
2024-02-22T00:20:29.230Z,1.73
2024-02-22T00:25:32.758Z,1.35
2024-02-22T00:30:37.741Z,1.20
2024-02-22T00:40:44.279Z,1.00
2024-02-22T00:45:49.561Z,0.80
2024-02-22T00:50:53.155Z,1.25
2024-02-22T00:55:56.601Z,1.20
2024-02-22T01:01:01.577Z,0.70
2024-02-22T01:06:05.364Z,0.77
2024-02-22T01:11:08.967Z,0.95
2024-02-22T01:16:13.919Z,1.13
2024-02-22T01:26:20.946Z,1.00
2024-02-22T01:31:25.755Z,1.17
2024-02-22T01:36:29.097Z,1.02
2024-02-22T01:41:32.503Z,1.02
2024-02-22T01:46:37.694Z,0.90
2024-02-22T01:51:41.285Z,0.70
2024-02-22T01:56:44.663Z,0.60
2024-02-22T02:01:52.387Z,0.70
2024-02-22T02:06:56.027Z,0.55
2024-02-22T02:11:59.474Z,0.70
2024-02-22T02:17:04.402Z,0.60
2024-02-22T02:27:17.934Z,0.73
2024-02-22T02:32:21.351Z,0.45
2024-02-22T02:37:24.718Z,0.77
2024-02-22T02:42:29.537Z,0.70
2024-02-22T02:52:36.086Z,0.28
2024-02-22T02:57:40.996Z,0.57
2024-02-22T03:07:47.522Z,0.85
2024-02-22T03:12:53.182Z,0.47
2024-02-22T03:17:56.559Z,0.57
2024-02-22T03:23:00.630Z,0.57
2024-02-22T03:28:07.790Z,0.47
2024-02-22T03:33:11.389Z,0.70
2024-02-22T03:38:14.922Z,0.60
2024-02-22T03:43:19.782Z,0.52
2024-02-22T03:53:26.356Z,0.40
2024-02-22T03:58:31.224Z,0.50
2024-02-22T04:08:38.895Z,0.40
2024-02-22T04:13:43.930Z,0.40
2024-02-22T04:18:47.482Z,0.40
2024-02-22T04:23:51.001Z,0.60
2024-02-22T04:28:55.851Z,0.30
2024-02-22T04:39:02.591Z,0.35
2024-02-22T04:44:08.226Z,0.30
2024-02-22T04:49:11.703Z,0.15
2024-02-22T04:54:15.525Z,0.28
2024-02-22T04:59:20.389Z,0.20
2024-02-22T05:09:26.824Z,0.10
2024-02-22T05:14:31.640Z,0.20
2024-02-22T05:24:38.131Z,0.30
2024-02-22T05:29:42.984Z,0.20
2024-02-22T05:39:49.577Z,0.10
2024-02-22T05:44:54.874Z,0.32
2024-02-22T05:49:58.467Z,0.25
2024-02-22T05:55:02.055Z,0.43
2024-02-22T06:00:08.750Z,0.20
2024-02-22T06:05:13.011Z,0.13
2024-02-22T06:10:16.666Z,0.13
2024-02-22T06:15:21.611Z,0.20
2024-02-22T06:20:25.119Z,0.38
2024-02-22T06:25:29.305Z,0.20
2024-02-22T06:30:34.119Z,0.20
2024-02-22T06:35:37.823Z,0.20
2024-02-22T06:40:50.626Z,0.10
2024-02-22T06:45:55.970Z,0.20
2024-02-22T06:51:00.578Z,0.10
2024-02-22T06:56:04.059Z,0.20
2024-02-22T07:01:08.992Z,0.10
2024-02-22T07:06:13.409Z,0.20
2024-02-22T07:11:17.016Z,0.20
2024-02-22T07:16:22.121Z,0.20
2024-02-22T07:21:25.602Z,0.20
2024-02-22T07:26:29.078Z,0.30
2024-02-22T07:31:34.000Z,0.40
2024-02-22T07:41:44.769Z,0.40
2024-02-22T07:46:49.655Z,0.75
2024-02-22T07:57:05.636Z,0.70
2024-02-22T08:02:12.041Z,0.60
2024-02-22T08:07:16.554Z,0.80
2024-02-22T08:12:20.259Z,0.90
2024-02-22T08:17:25.316Z,1.00
2024-02-22T08:22:28.802Z,1.35
2024-02-22T08:27:32.247Z,1.00
2024-02-22T08:32:37.281Z,1.60
2024-02-22T08:37:41.111Z,1.45
2024-02-22T08:42:44.569Z,1.45
2024-02-22T08:47:49.422Z,1.27
2024-02-22T08:57:58.705Z,0.95
2024-02-22T09:03:05.461Z,1.20
2024-02-22T09:08:09.846Z,1.20
2024-02-22T09:13:13.336Z,0.93
2024-02-22T09:18:19.126Z,1.05
2024-02-22T09:23:23.270Z,1.63
2024-02-22T09:28:27.178Z,2.17
2024-02-22T09:33:32.117Z,1.23
2024-02-22T09:38:37.225Z,1.60
2024-02-22T09:43:40.936Z,1.55
2024-02-22T09:48:46.673Z,1.95
2024-02-22T09:53:51.902Z,1.30
2024-02-22T09:58:56.272Z,1.88
2024-02-22T10:04:11.462Z,1.83
2024-02-22T10:09:15.829Z,1.30
2024-02-22T10:14:19.376Z,1.10
2024-02-22T10:19:24.770Z,1.42
2024-02-22T10:24:29.162Z,1.38
2024-02-22T10:29:32.776Z,1.08
2024-02-22T10:34:38.763Z,0.82
2024-02-22T10:39:43.138Z,0.98
2024-02-22T10:44:47.567Z,0.70
2024-02-22T10:49:57.143Z,0.90
2024-02-22T10:55:07.741Z,0.90
2024-02-22T11:00:15.195Z,0.30
2024-02-22T11:05:20.139Z,0.57
2024-02-22T11:10:24.125Z,0.38
2024-02-22T11:15:36.244Z,0.20
2024-02-22T11:20:41.644Z,0.38
2024-02-22T11:25:45.336Z,0.20
2024-02-22T11:30:49.380Z,0.85
2024-02-22T11:35:57.150Z,0.30
2024-02-22T11:41:05.866Z,0.43
2024-02-22T11:46:09.374Z,0.50
2024-02-22T11:51:15.158Z,0.57
2024-02-22T11:56:18.752Z,0.50
2024-02-22T12:01:22.275Z,0.95
2024-02-22T12:06:27.798Z,0.50
2024-02-22T12:11:31.966Z,0.43
2024-02-22T12:16:41.117Z,0.47
2024-02-22T12:21:49.208Z,0.50
2024-02-22T12:26:54.238Z,0.55
2024-02-22T12:32:04.591Z,0.45
2024-02-22T12:37:09.665Z,1.05
2024-02-22T12:42:13.151Z,1.08
2024-02-22T12:47:17.012Z,1.15
2024-02-22T12:52:22.366Z,1.73
2024-02-22T12:57:25.854Z,0.90
2024-02-22T13:02:29.433Z,1.00
2024-02-22T13:07:34.340Z,0.82
2024-02-22T13:17:41.155Z,1.27
2024-02-22T13:22:46.937Z,1.25
2024-02-22T13:27:50.364Z,1.10
2024-02-22T13:32:56.714Z,1.08
2024-02-22T13:38:01.651Z,0.90
2024-02-22T13:48:12.944Z,1.00
2024-02-22T13:53:18.301Z,1.00
2024-02-22T13:58:21.971Z,1.00
2024-02-22T14:03:25.482Z,0.90
2024-02-22T14:08:30.701Z,0.93
2024-02-22T14:13:36.853Z,1.15
2024-02-22T14:18:40.503Z,0.82
2024-02-22T14:23:48.011Z,1.45
2024-02-22T14:28:53.246Z,1.20
2024-02-22T14:33:57.231Z,1.50
2024-02-22T14:39:02.124Z,1.20
2024-02-22T14:44:05.827Z,1.35
2024-02-22T14:49:09.610Z,1.33
2024-02-22T14:54:14.655Z,1.30
2024-02-22T14:59:18.564Z,1.20
2024-02-22T15:04:25.185Z,1.63
2024-02-22T15:09:30.065Z,1.45
2024-02-22T15:19:36.910Z,1.60
2024-02-22T15:24:41.906Z,1.95
2024-02-22T15:29:45.898Z,1.88
2024-02-22T15:34:49.469Z,1.67
2024-02-22T15:39:54.442Z,1.73
2024-02-22T15:50:04.113Z,1.52
2024-02-22T15:55:10.167Z,2.20
2024-02-22T16:00:14.685Z,1.80
2024-02-22T16:05:18.108Z,1.55
2024-02-22T16:10:23.528Z,1.67
2024-02-22T16:15:27.433Z,1.10
2024-02-22T16:20:30.897Z,1.30
2024-02-22T16:25:35.817Z,1.27
2024-02-22T16:35:42.649Z,1.77
2024-02-22T16:40:48.039Z,1.65
2024-02-22T16:45:51.898Z,1.58
2024-02-22T16:50:55.297Z,1.80
2024-02-22T16:56:01.911Z,2.17
2024-02-22T17:01:06.285Z,1.88
2024-02-22T17:06:12.285Z,1.67
2024-02-22T17:11:17.275Z,1.77
2024-02-22T17:21:24.988Z,1.67
2024-02-22T17:26:29.828Z,2.00
2024-02-22T17:31:33.425Z,1.95
2024-02-22T17:36:36.919Z,2.05
2024-02-22T17:41:41.825Z,2.17
2024-02-22T17:51:53.574Z,1.58
2024-02-22T17:57:00.982Z,1.90
2024-02-22T18:02:06.200Z,2.13
2024-02-22T18:07:10.169Z,3.00
2024-02-22T18:12:17.156Z,2.45
2024-02-22T18:17:20.673Z,2.85
2024-02-22T18:22:25.526Z,2.55
2024-02-22T18:27:33.318Z,2.42
2024-02-22T18:32:38.126Z,2.97
2024-02-22T18:37:42.361Z,2.30
2024-02-22T18:42:50.232Z,2.27
2024-02-22T18:47:54.989Z,2.15
2024-02-22T18:52:59.961Z,2.50
2024-02-22T19:03:11.771Z,1.85
2024-02-22T19:08:15.290Z,2.15
2024-02-22T19:13:20.277Z,2.30
2024-02-22T19:18:23.704Z,1.80
2024-02-22T19:23:27.218Z,2.00
2024-02-22T19:28:32.518Z,2.03
2024-02-22T19:33:36.347Z,1.90
2024-02-22T19:38:42.917Z,2.15
2024-02-22T19:43:49.129Z,3.88
2024-02-22T19:48:54.573Z,6.03
2024-02-22T19:53:58.296Z,4.22
2024-02-22T19:59:03.979Z,3.65
2024-02-22T20:04:07.529Z,2.72
2024-02-22T20:09:11.022Z,2.50
2024-02-22T20:14:16.882Z,2.47
2024-02-22T20:19:20.427Z,2.47
2024-02-22T20:24:23.904Z,2.28
2024-02-22T20:29:28.814Z,1.83
2024-02-22T20:34:32.673Z,2.03
2024-02-22T20:39:36.658Z,2.00
2024-02-22T20:44:42.016Z,2.22
2024-02-22T20:49:45.978Z,2.45
2024-02-22T20:54:49.680Z,2.25
2024-02-22T20:59:54.545Z,2.80
2024-02-22T21:04:58.267Z,2.55
2024-02-22T21:10:02.222Z,2.80
2024-02-22T21:15:08.999Z,3.30
2024-02-22T21:20:13.739Z,3.47
2024-02-22T21:25:17.721Z,2.85
2024-02-22T21:30:22.534Z,2.13
2024-02-22T21:35:26.075Z,2.05
2024-02-22T21:40:29.839Z,3.03
2024-02-22T21:45:34.691Z,2.10
2024-02-22T21:50:38.628Z,2.15
2024-02-22T21:55:42.474Z,2.15
2024-02-22T22:00:47.351Z,2.00
2024-02-22T22:05:50.799Z,2.20
2024-02-22T22:10:54.902Z,1.77
2024-02-22T22:15:59.736Z,2.38
2024-02-22T22:21:17.016Z,3.13
2024-02-22T22:26:29.301Z,2.60
2024-02-22T22:31:34.510Z,2.22
2024-02-22T22:36:37.894Z,2.60
2024-02-22T22:41:41.323Z,2.42
2024-02-22T22:46:46.210Z,2.33
2024-02-22T22:51:49.790Z,2.00
2024-02-22T22:56:56.497Z,2.53
2024-02-22T23:02:01.449Z,1.90
2024-02-22T23:07:05.247Z,2.10
2024-02-22T23:12:09.696Z,2.90
2024-02-22T23:17:14.667Z,2.37
2024-02-22T23:22:18.092Z,2.30
2024-02-22T23:27:21.548Z,2.28
2024-02-22T23:32:26.450Z,2.00
2024-02-22T23:37:29.906Z,2.22
2024-02-22T23:42:33.345Z,2.03
2024-02-22T23:47:38.218Z,1.98
2024-02-22T23:52:41.664Z,2.17
2024-02-22T23:57:45.078Z,2.10
